createdAt,value
2023-02-27T00:01:46.921Z,91.81
2023-02-27T00:04:15.369Z,91.66
2023-02-27T00:23:46.520Z,87.23
2023-02-27T00:26:14.684Z,86.81
2023-02-27T00:28:42.813Z,86.08
2023-02-27T00:31:11.243Z,86.52
2023-02-27T00:33:39.514Z,86.78
2023-02-27T00:36:10.865Z,86.06
2023-02-27T00:38:39.138Z,86.71
2023-02-27T00:41:07.321Z,86.76
2023-02-27T00:43:35.833Z,87.16
2023-02-27T00:46:04.170Z,87.22
2023-02-27T00:48:32.982Z,87.75
2023-02-27T00:51:03.091Z,87.88
2023-02-27T00:53:31.246Z,88.29
2023-02-27T00:55:59.229Z,88.47
2023-02-27T00:58:27.614Z,88.54
2023-02-27T01:00:56.251Z,88.51
2023-02-27T01:03:24.450Z,88.78
2023-02-27T01:05:53.363Z,88.87
2023-02-27T01:08:21.614Z,88.90
2023-02-27T01:10:49.795Z,88.90
2023-02-27T01:13:18.179Z,89.15
2023-02-27T01:15:46.583Z,89.21
2023-02-27T01:18:14.722Z,89.43
2023-02-27T01:20:43.102Z,89.61
2023-02-27T01:23:14.552Z,89.63
2023-02-27T01:25:44.065Z,89.56
2023-02-27T01:28:12.230Z,89.55
2023-02-27T01:30:42.195Z,89.70
2023-02-27T01:33:10.655Z,89.86
2023-02-27T01:35:41.570Z,90.00
2023-02-27T01:38:10.578Z,90.20
2023-02-27T01:40:41.273Z,90.17
2023-02-27T01:43:18.313Z,90.55
2023-02-27T01:45:48.893Z,90.41
2023-02-27T01:48:23.280Z,90.17
2023-02-27T01:51:05.487Z,89.06
2023-02-27T01:53:37.602Z,89.14
2023-02-27T01:56:11.620Z,89.75
2023-02-27T01:58:40.702Z,90.19
2023-02-27T02:28:19.139Z,86.03
2023-02-27T02:31:15.721Z,86.48
2023-02-27T02:34:13.817Z,86.89
2023-02-27T02:37:19.452Z,86.84
2023-02-27T02:39:47.523Z,86.87
2023-02-27T02:42:40.275Z,87.73
2023-02-27T02:45:23.396Z,88.00
2023-02-27T02:47:54.529Z,88.23
2023-02-27T02:50:48.929Z,88.12
2023-02-27T02:53:37.759Z,88.31
2023-02-27T02:56:13.530Z,88.01
2023-02-27T02:58:50.719Z,88.51
2023-02-27T03:01:32.782Z,88.41
2023-02-27T03:04:22.519Z,88.16
2023-02-27T03:06:58.604Z,87.95
2023-02-27T03:09:33.769Z,87.85
2023-02-27T03:12:06.224Z,87.43
2023-02-27T03:14:49.620Z,86.84
2023-02-27T03:17:38.596Z,86.91
2023-02-27T03:20:11.516Z,87.00
2023-02-27T03:22:44.731Z,87.30
2023-02-27T03:25:15.327Z,87.17
2023-02-27T03:28:10.674Z,87.05
2023-02-27T03:30:51.290Z,86.92
2023-02-27T03:33:29.286Z,86.99
2023-02-27T03:36:12.121Z,87.17
2023-02-27T03:39:21.908Z,87.25
2023-02-27T03:42:09.113Z,87.44
2023-02-27T03:45:08.534Z,87.78
2023-02-27T03:47:37.109Z,87.84
2023-02-27T03:50:06.101Z,88.24
2023-02-27T03:52:34.475Z,88.28
2023-02-27T03:55:19.226Z,88.48
2023-02-27T03:57:50.040Z,88.63
2023-02-27T04:00:21.851Z,88.31
2023-02-27T04:02:53.310Z,88.75
2023-02-27T04:05:24.843Z,88.91
2023-02-27T04:08:16.458Z,89.23
2023-02-27T04:10:57.469Z,89.28
2023-02-27T04:13:43.224Z,89.26
2023-02-27T04:16:32.520Z,89.19
2023-02-27T04:19:22.260Z,89.17
2023-02-27T04:22:08.879Z,88.86
2023-02-27T04:25:01.932Z,88.70
2023-02-27T04:27:59.383Z,88.70
2023-02-27T04:30:38.933Z,88.28
2023-02-27T04:33:09.687Z,88.61
2023-02-27T04:35:54.782Z,89.10
2023-02-27T04:38:32.434Z,88.45
2023-02-27T04:41:10.132Z,88.43
2023-02-27T04:43:40.865Z,88.64
2023-02-27T04:46:13.261Z,88.56
2023-02-27T04:48:49.604Z,88.42
2023-02-27T04:51:23.201Z,88.61
2023-02-27T04:53:59.875Z,88.10
2023-02-27T04:56:33.081Z,87.84
2023-02-27T04:59:20.485Z,87.33
2023-02-27T05:01:57.479Z,87.44
2023-02-27T05:04:30.000Z,87.54
2023-02-27T05:07:01.288Z,87.60
2023-02-27T05:09:48.412Z,87.78
2023-02-27T05:12:29.284Z,87.73
2023-02-27T05:15:38.818Z,87.89
2023-02-27T05:18:15.212Z,88.28
2023-02-27T05:21:16.131Z,88.12
2023-02-27T05:24:08.660Z,88.01
2023-02-27T05:27:01.537Z,88.29
2023-02-27T05:42:32.468Z,86.35
2023-02-27T05:45:07.818Z,86.37
2023-02-27T05:47:41.201Z,86.33
2023-02-27T05:50:13.975Z,86.78
2023-02-27T05:52:43.488Z,86.48
2023-02-27T05:55:24.254Z,85.99
2023-02-27T05:58:19.893Z,86.40
2023-02-27T06:00:52.464Z,86.52
2023-02-27T06:03:21.396Z,87.09
2023-02-27T06:05:55.022Z,87.00
2023-02-27T06:08:23.343Z,86.55
2023-02-27T06:10:52.106Z,86.87
2023-02-27T06:13:20.280Z,86.53
2023-02-27T06:15:49.524Z,86.73
2023-02-27T06:18:18.754Z,86.35
2023-02-27T06:20:48.297Z,86.40
2023-02-27T06:23:17.317Z,86.05
2023-02-27T06:25:45.865Z,86.10
2023-02-27T06:28:14.038Z,85.92
2023-02-27T06:30:42.166Z,85.70
2023-02-27T06:33:10.734Z,86.21
2023-02-27T06:35:38.978Z,85.86
2023-02-27T06:38:07.359Z,85.47
2023-02-27T06:40:35.606Z,85.31
2023-02-27T06:43:03.689Z,85.43
2023-02-27T06:45:31.862Z,85.71
2023-02-27T06:48:00.340Z,85.78
2023-02-27T06:50:28.819Z,85.59
2023-02-27T06:52:57.048Z,85.58
2023-02-27T06:55:26.000Z,85.55
2023-02-27T07:11:34.433Z,82.74
2023-02-27T07:14:02.569Z,81.72
2023-02-27T07:16:30.620Z,82.20
2023-02-27T07:18:59.101Z,81.62
2023-02-27T07:21:27.617Z,82.46
2023-02-27T07:38:14.763Z,79.29
2023-02-27T07:40:43.179Z,78.41
2023-02-27T07:43:11.429Z,79.02
2023-02-27T07:45:39.716Z,78.98
2023-02-27T07:48:07.875Z,79.51
2023-02-27T07:50:35.964Z,79.74
2023-02-27T07:53:05.763Z,79.61
2023-02-27T07:55:34.041Z,79.71
2023-02-27T07:58:02.134Z,79.91
2023-02-27T08:00:30.527Z,80.13
2023-02-27T08:02:58.807Z,80.54
2023-02-27T08:05:27.106Z,80.78
2023-02-27T08:07:55.485Z,80.80
2023-02-27T08:10:23.732Z,80.66
2023-02-27T08:12:52.487Z,81.12
2023-02-27T08:15:21.687Z,81.00
2023-02-27T08:17:49.928Z,80.49
2023-02-27T08:20:19.162Z,80.44
2023-02-27T08:22:47.547Z,80.45
2023-02-27T08:25:16.352Z,80.60
2023-02-27T08:27:44.553Z,80.64
2023-02-27T08:30:13.048Z,80.25
2023-02-27T08:32:41.249Z,80.07
2023-02-27T08:35:09.888Z,80.38
2023-02-27T08:37:38.254Z,80.57
2023-02-27T08:40:07.347Z,80.31
2023-02-27T08:42:35.518Z,80.02
2023-02-27T08:45:04.429Z,79.98
2023-02-27T08:47:32.539Z,79.84
2023-02-27T08:50:01.340Z,79.23
2023-02-27T08:52:29.612Z,78.86
2023-02-27T08:54:57.869Z,78.54
2023-02-27T08:57:26.262Z,77.95
2023-02-27T08:59:54.585Z,77.22
2023-02-27T09:02:27.070Z,77.21
2023-02-27T09:04:55.399Z,76.82
2023-02-27T09:07:23.601Z,76.81
2023-02-27T09:09:51.867Z,76.96
2023-02-27T09:12:19.953Z,76.12
2023-02-27T09:14:48.546Z,76.34
2023-02-27T09:17:16.759Z,76.64
2023-02-27T09:19:44.857Z,76.33
2023-02-27T09:22:12.948Z,75.86
2023-02-27T09:24:41.220Z,75.76
2023-02-27T09:27:09.461Z,76.06
2023-02-27T09:29:37.733Z,76.04
2023-02-27T09:32:06.217Z,75.81
2023-02-27T09:34:34.509Z,75.27
2023-02-27T09:37:02.867Z,75.72
2023-02-27T09:39:31.762Z,75.52
2023-02-27T09:42:05.623Z,74.95
2023-02-27T09:44:47.457Z,74.90
2023-02-27T09:47:20.726Z,74.51
2023-02-27T09:50:02.016Z,74.58
2023-02-27T09:52:32.674Z,74.39
2023-02-27T09:55:01.402Z,74.02
2023-02-27T09:57:32.486Z,73.32
2023-02-27T10:00:07.336Z,73.23
2023-02-27T10:02:55.665Z,72.92
2023-02-27T10:05:38.591Z,72.23
2023-02-27T10:08:23.787Z,72.15
2023-02-27T10:11:08.678Z,71.68
2023-02-27T10:13:49.492Z,71.47
2023-02-27T10:16:21.627Z,71.51
2023-02-27T10:18:59.775Z,71.56
2023-02-27T10:21:42.382Z,71.38
2023-02-27T10:24:27.968Z,71.47
2023-02-27T10:26:59.215Z,71.40
2023-02-27T10:29:41.931Z,71.22
2023-02-27T10:32:25.155Z,71.69
2023-02-27T10:34:59.106Z,71.14
2023-02-27T10:37:28.789Z,70.62
2023-02-27T10:40:00.193Z,69.46
2023-02-27T10:42:33.421Z,69.10
2023-02-27T10:45:02.534Z,68.40
2023-02-27T10:47:31.395Z,67.94
2023-02-27T10:50:00.581Z,67.60
2023-02-27T10:52:28.791Z,67.81
2023-02-27T10:55:18.575Z,67.49
2023-02-27T10:57:47.222Z,68.25
2023-02-27T11:00:52.636Z,68.82
2023-02-27T11:03:25.251Z,69.37
2023-02-27T11:06:22.440Z,69.39
2023-02-27T11:09:18.620Z,69.62
2023-02-27T11:11:46.801Z,70.04
2023-02-27T11:14:29.930Z,70.60
2023-02-27T11:17:00.657Z,70.90
2023-02-27T11:19:33.588Z,70.70
2023-02-27T11:22:03.481Z,70.19
2023-02-27T11:24:32.272Z,71.05
2023-02-27T11:27:06.773Z,71.90
2023-02-27T11:29:35.166Z,71.23
2023-02-27T11:32:22.223Z,70.66
2023-02-27T11:34:52.508Z,70.43
2023-02-27T11:37:34.395Z,69.97
2023-02-27T11:40:14.565Z,69.72
2023-02-27T11:43:11.476Z,69.30
2023-02-27T11:46:05.316Z,69.96
2023-02-27T11:48:39.190Z,70.46
2023-02-27T11:51:29.433Z,70.70
2023-02-27T11:54:00.915Z,70.69
2023-02-27T11:56:49.269Z,71.58
2023-02-27T11:59:24.139Z,71.68
2023-02-27T12:02:23.833Z,71.62
2023-02-27T12:05:19.330Z,72.16
2023-02-27T12:08:05.767Z,72.50
2023-02-27T12:11:11.489Z,72.38
2023-02-27T12:13:47.598Z,72.01
2023-02-27T12:16:15.669Z,71.95
2023-02-27T12:18:51.862Z,72.35
2023-02-27T12:21:24.889Z,72.23
2023-02-27T12:24:25.695Z,72.34
2023-02-27T12:27:25.204Z,72.17
2023-02-27T12:30:07.841Z,72.07
2023-02-27T12:32:58.105Z,72.13
2023-02-27T12:35:33.450Z,71.83
2023-02-27T12:38:02.969Z,71.48
2023-02-27T12:40:38.137Z,71.59
2023-02-27T12:43:33.805Z,70.53
2023-02-27T12:46:18.049Z,70.45
2023-02-27T12:49:04.353Z,70.43
2023-02-27T12:52:07.949Z,70.75
2023-02-27T12:54:47.802Z,70.49
2023-02-27T12:57:28.481Z,70.38
2023-02-27T13:00:08.363Z,71.09
2023-02-27T13:02:45.397Z,71.03
2023-02-27T13:05:43.483Z,70.38
2023-02-27T13:08:28.650Z,70.59
2023-02-27T13:11:06.155Z,70.84
2023-02-27T13:25:18.771Z,67.78
2023-02-27T13:27:51.848Z,66.59
2023-02-27T13:30:28.409Z,66.79
2023-02-27T13:33:13.790Z,66.97
2023-02-27T13:35:52.671Z,66.92
2023-02-27T13:38:50.442Z,66.56
2023-02-27T13:41:21.624Z,66.48
2023-02-27T13:44:20.049Z,66.10
2023-02-27T13:46:48.661Z,65.54
2023-02-27T13:49:29.612Z,65.69
2023-02-27T13:52:05.468Z,65.52
2023-02-27T13:54:39.436Z,66.07
2023-02-27T13:57:19.115Z,66.29
2023-02-27T14:00:05.313Z,66.91
2023-02-27T14:02:59.931Z,67.37
2023-02-27T14:05:43.025Z,67.57
2023-02-27T14:08:25.023Z,67.65
2023-02-27T14:11:10.416Z,68.16
2023-02-27T14:13:51.086Z,68.27
2023-02-27T14:16:37.597Z,68.60
2023-02-27T14:19:23.872Z,68.58
2023-02-27T14:22:01.597Z,69.27
2023-02-27T14:24:49.597Z,69.80
2023-02-27T14:27:27.696Z,70.95
2023-02-27T14:30:04.273Z,71.21
2023-02-27T14:32:38.105Z,71.60
2023-02-27T14:35:06.870Z,71.89
2023-02-27T14:37:36.468Z,72.45
2023-02-27T14:40:06.586Z,72.75
2023-02-27T14:42:52.482Z,73.42
2023-02-27T14:45:24.525Z,73.52
2023-02-27T14:47:53.645Z,72.82
2023-02-27T14:50:34.413Z,72.77
2023-02-27T14:53:03.417Z,73.36
2023-02-27T14:55:36.292Z,73.30
2023-02-27T14:58:07.427Z,73.74
2023-02-27T15:00:50.588Z,74.12
2023-02-27T15:03:22.826Z,73.93
2023-02-27T15:05:53.788Z,73.86
2023-02-27T15:08:36.075Z,74.13
2023-02-27T15:11:04.659Z,74.31
2023-02-27T15:13:36.223Z,74.91
2023-02-27T15:16:26.182Z,75.47
2023-02-27T15:18:58.327Z,75.22
2023-02-27T15:32:50.071Z,72.78
2023-02-27T15:35:27.115Z,73.22
2023-02-27T15:37:57.917Z,73.72
2023-02-27T15:40:33.109Z,74.13
2023-02-27T15:43:01.937Z,74.80
2023-02-27T15:45:34.214Z,75.20
2023-02-27T15:48:04.228Z,75.52
2023-02-27T15:50:38.648Z,75.75
2023-02-27T15:53:17.165Z,76.28
2023-02-27T15:55:51.200Z,77.22
2023-02-27T15:58:35.065Z,77.35
2023-02-27T16:01:13.211Z,78.37
2023-02-27T16:03:48.046Z,78.65
2023-02-27T16:06:16.077Z,78.54
2023-02-27T16:08:50.659Z,79.12
2023-02-27T16:11:24.017Z,79.68
2023-02-27T16:13:53.374Z,80.27
2023-02-27T16:16:21.461Z,80.86
2023-02-27T16:18:52.567Z,81.26
2023-02-27T16:21:23.986Z,81.25
2023-02-27T16:23:54.083Z,82.78
2023-02-27T16:26:25.009Z,82.60
2023-02-27T16:29:03.867Z,82.58
2023-02-27T16:31:40.893Z,82.73
2023-02-27T16:34:45.610Z,82.45
2023-02-27T16:37:30.905Z,82.21
2023-02-27T16:39:59.161Z,82.37
2023-02-27T16:42:27.309Z,82.09
2023-02-27T16:44:55.393Z,82.08
2023-02-27T16:47:23.484Z,82.21
2023-02-27T16:49:51.726Z,82.06
2023-02-27T16:52:23.135Z,81.72
2023-02-27T16:54:51.415Z,81.39
2023-02-27T16:57:19.582Z,81.49
2023-02-27T16:59:47.904Z,81.83
2023-02-27T17:02:16.468Z,81.43
2023-02-27T17:04:46.900Z,81.07
2023-02-27T17:07:17.310Z,81.37
2023-02-27T17:09:46.916Z,81.42
2023-02-27T17:12:15.053Z,81.23
2023-02-27T17:14:43.297Z,81.67
2023-02-27T17:17:11.672Z,81.68
2023-02-27T17:19:39.968Z,81.35
2023-02-27T17:22:08.277Z,80.58
2023-02-27T17:24:37.522Z,81.52
2023-02-27T17:27:05.699Z,82.06
2023-02-27T17:29:33.846Z,81.96
2023-02-27T17:32:01.981Z,82.05
2023-02-27T17:34:30.176Z,82.01
2023-02-27T17:36:58.224Z,81.99
2023-02-27T17:39:26.533Z,81.85
2023-02-27T17:41:54.847Z,82.04
2023-02-27T17:44:22.913Z,82.20
2023-02-27T17:46:51.088Z,82.06
2023-02-27T17:49:19.148Z,82.04
2023-02-27T17:51:47.436Z,82.49
2023-02-27T17:54:15.711Z,82.75
2023-02-27T17:56:43.908Z,82.36
2023-02-27T17:59:12.005Z,82.54
2023-02-27T18:01:40.151Z,82.45
2023-02-27T18:04:11.407Z,82.49
2023-02-27T18:06:39.618Z,82.42
2023-02-27T18:09:07.716Z,82.40
2023-02-27T18:11:37.630Z,82.19
2023-02-27T18:14:05.808Z,82.40
2023-02-27T18:16:33.981Z,82.83
2023-02-27T18:19:09.842Z,82.61
2023-02-27T18:21:38.300Z,82.87
2023-02-27T18:24:06.995Z,83.07
2023-02-27T18:26:35.438Z,83.20
2023-02-27T18:29:10.310Z,83.18
2023-02-27T18:31:46.414Z,83.12
2023-02-27T18:34:14.638Z,83.22
2023-02-27T18:36:42.795Z,82.97
2023-02-27T18:39:11.704Z,83.21
2023-02-27T18:41:40.099Z,83.24
2023-02-27T18:44:09.010Z,83.22
2023-02-27T18:46:38.474Z,83.12
2023-02-27T18:49:06.885Z,83.08
2023-02-27T18:51:35.232Z,83.05
2023-02-27T18:54:05.319Z,82.98
2023-02-27T18:56:33.443Z,82.97
2023-02-27T18:59:02.197Z,82.80
2023-02-27T19:01:33.298Z,82.87
2023-02-27T19:04:05.516Z,83.04
2023-02-27T19:06:41.039Z,83.14
2023-02-27T19:09:12.679Z,82.96
2023-02-27T19:11:42.126Z,83.24
2023-02-27T19:14:13.583Z,83.39
2023-02-27T19:16:42.449Z,83.27
2023-02-27T19:19:11.883Z,83.21
2023-02-27T19:21:40.362Z,83.17
2023-02-27T19:24:11.198Z,83.17
2023-02-27T19:26:40.519Z,82.80
2023-02-27T19:29:09.000Z,82.83
2023-02-27T19:31:37.125Z,82.96
2023-02-27T19:34:05.926Z,82.85
2023-02-27T19:36:34.940Z,82.95
2023-02-27T19:39:03.939Z,83.11
2023-02-27T19:41:33.503Z,83.40
2023-02-27T19:44:02.104Z,83.50
2023-02-27T19:46:33.861Z,83.67
2023-02-27T19:49:04.978Z,83.37
2023-02-27T19:51:33.294Z,83.49
2023-02-27T19:54:01.358Z,83.41
2023-02-27T19:56:30.298Z,83.18
2023-02-27T19:59:00.712Z,83.03
2023-02-27T20:01:34.820Z,83.05
2023-02-27T20:04:03.579Z,82.84
2023-02-27T20:06:42.020Z,82.85
2023-02-27T20:09:15.607Z,83.21
2023-02-27T20:11:44.676Z,83.26
2023-02-27T20:14:14.490Z,83.50
2023-02-27T20:16:42.961Z,83.49
2023-02-27T20:19:14.981Z,83.77
2023-02-27T20:21:43.610Z,83.85
2023-02-27T20:24:14.366Z,84.04
2023-02-27T20:26:48.485Z,83.78
2023-02-27T20:29:20.281Z,84.07
2023-02-27T20:31:50.230Z,84.33
2023-02-27T20:34:26.469Z,84.68
2023-02-27T20:36:56.089Z,84.77
2023-02-27T20:39:24.815Z,84.83
2023-02-27T20:41:53.180Z,84.89
2023-02-27T20:44:21.344Z,85.36
2023-02-27T20:46:49.844Z,85.39
2023-02-27T20:49:18.713Z,85.31
2023-02-27T20:51:47.092Z,85.34
2023-02-27T20:54:20.637Z,85.24
2023-02-27T20:56:54.360Z,85.50
2023-02-27T20:59:27.416Z,85.31
2023-02-27T21:01:55.730Z,85.52
2023-02-27T21:04:42.482Z,85.65
2023-02-27T21:07:12.844Z,85.76
2023-02-27T21:09:41.657Z,85.75
2023-02-27T21:12:09.712Z,85.70
2023-02-27T21:14:37.878Z,85.67
2023-02-27T21:17:06.547Z,85.61
2023-02-27T21:19:34.886Z,85.55
2023-02-27T21:22:03.628Z,85.32
2023-02-27T21:24:32.357Z,85.29
2023-02-27T21:27:00.432Z,85.28
2023-02-27T21:29:28.608Z,85.36
2023-02-27T21:31:56.809Z,85.30
2023-02-27T21:34:26.998Z,85.08
2023-02-27T21:36:56.093Z,84.59
2023-02-27T21:39:28.458Z,84.18
2023-02-27T21:41:59.649Z,83.99
2023-02-27T21:44:29.888Z,84.18
2023-02-27T21:46:58.412Z,84.19
2023-02-27T21:49:28.657Z,84.23
2023-02-27T21:51:57.331Z,84.15
2023-02-27T21:54:25.389Z,84.27
2023-02-27T21:56:53.971Z,84.35
2023-02-27T21:59:22.228Z,84.10
2023-02-27T22:01:50.464Z,84.37
2023-02-27T22:04:20.199Z,84.24
2023-02-27T22:06:50.453Z,84.39
2023-02-27T22:09:19.648Z,84.12
2023-02-27T22:11:48.744Z,84.15
2023-02-27T22:14:17.223Z,84.19
2023-02-27T22:16:45.614Z,84.25
2023-02-27T22:19:20.152Z,84.31
2023-02-27T22:21:49.118Z,84.51
2023-02-27T22:24:17.408Z,84.36
2023-02-27T22:26:45.938Z,84.40
2023-02-27T22:29:14.367Z,84.61
2023-02-27T22:31:42.656Z,84.89
2023-02-27T22:34:15.218Z,84.93
2023-02-27T22:36:43.796Z,85.01
2023-02-27T22:39:12.988Z,85.28
2023-02-27T22:41:42.100Z,85.29
2023-02-27T22:44:14.187Z,85.55
2023-02-27T22:46:48.306Z,85.71
2023-02-27T22:49:21.876Z,85.85
2023-02-27T22:51:52.158Z,85.88
2023-02-27T22:54:22.664Z,85.81
2023-02-27T22:56:53.210Z,85.84
2023-02-27T22:59:21.935Z,85.79
2023-02-27T23:01:50.747Z,85.65
2023-02-27T23:04:19.096Z,85.43
2023-02-27T23:06:47.929Z,85.47
2023-02-27T23:09:19.004Z,85.52
2023-02-27T23:11:47.403Z,85.69
2023-02-27T23:14:15.820Z,85.72
2023-02-27T23:16:47.160Z,85.65
2023-02-27T23:19:18.585Z,85.29
2023-02-27T23:21:47.599Z,85.09
2023-02-27T23:24:18.006Z,84.88
2023-02-27T23:26:51.529Z,84.96
2023-02-27T23:29:20.177Z,84.96
2023-02-27T23:31:48.315Z,85.04
2023-02-27T23:34:16.832Z,85.05
2023-02-27T23:36:45.209Z,84.77
2023-02-27T23:39:13.292Z,84.74
2023-02-27T23:41:41.397Z,84.90
2023-02-27T23:44:09.418Z,85.03
2023-02-27T23:46:38.321Z,85.03
2023-02-27T23:49:06.592Z,85.28
2023-02-27T23:51:34.971Z,85.35
2023-02-27T23:54:03.673Z,85.49
2023-02-27T23:56:31.849Z,85.53
2023-02-27T23:59:04.342Z,85.66
